Details From MNMG - Managua Intl
To SKRG - Jose Maria Cordova
Flight Number -
Tags Generated
Created
Modified
Stats Distance 732 nm / 1,356 km
Max Altitude 0 ft / 0 m
Waypoints 4
Social Downloads 1
Likes 0
Share VATSIM

Download

Looking for another format? Having issues loading an existing format? Contact us
Advertisement - Login to hide

Notes

Generated

Route

MNMG BOMAK LI SKRG

ID Type Via Altitude (ft/m) Position (lat/lon) Dist (leg/tot) Name
O MNMG APT - 0 / 0 12.14274 / -86.17933 - / 0 nm
BOMAK FIX - 0 / 0 8.22553 / -78.93311 488 / 488 nm
LI NDB - 0 / 0 6.20727 / -75.42186 241 / 730 nm MEDELLIN NDB
O SKRG APT - 0 / 0 6.18036 / -75.42323 1 / 731 nm

Altitude Profile

Advertisement - Login to hide

Weather


0- 5 10 15 20 25 30 35+ Temperature / °C

Clouds and Precipitation
Forecast for 2019-05-22 18:00 UTC. Updated an hour ago

Ground ~20,000 ft ~40,000 ft Winds

MNMG

Details ICAO MNMG (MGA)
Name Augusto C. Sandino Intl
Region Nicaragua
Timezone America/Managua (UTC-6.0)
Stats Elevation 192 ft / 59 m (AMSL)
Location 12.141600° -86.168400°
Runways 1
Magnetic Variation 1.150° W

METAR

MNMG 221600Z 11010KT 9000 DZ SCT010 SCT024 26/25 Q1009 A2982 NOSIG

Decode

TAF

TAF MNMG 221014Z 2212/2312 10006KT 9999 SCT022 SCT070 TEMPO 2215/2219 VRB12KT 8000 DZ/-TSRA FEW022CB SCT023 BECMG 2220/2303 15010KT 9999 FEW022CB SCT300

Decode

Departure Runways

ID Width Length Bearing (true/mag) Surface Threshold Overrun Markings Lighting
10 151 ft / 46 m 8,019 ft / 2,444 m 96.50° / 97.65° ASPHALT 0 ft / 0 m 89 ft / 27 m PREC-APP EDGE THRESHOLD ALSF-I REIL-OMNI
28 151 ft / 46 m 8,019 ft / 2,444 m 276.50° / 277.66° ASPHALT 0 ft / 0 m 98 ft / 30 m PREC-APP EDGE THRESHOLD REIL-OMNI

SKRG

Details ICAO SKRG (MDE)
Name Jose Maria Cordova Intl
Region Colombia
Timezone America/Bogota (UTC-5.0)
Stats Elevation 7,027 ft / 2,142 m (AMSL)
Location 6.164900° -75.423100°
Runways 1
Magnetic Variation 6.836° W

METAR

SKRG 221600Z VRB03KT 9999 BKN015 SCT200 21/14 A3031 BECMG BKN015TCU

Decode

TAF

TAF SKRG 221030Z 2212/2312 VRB02KT 9999 SCT015 SCT090 TEMPO 2212/2214 3000 BCFG BECMG 2216/2218 12010KT TEMPO 2219/2222 7000 VCSH SCT015 BKN080 TEMPO 2300/2305 8000 DZ VCFG BKN010 TX23/2218Z TN12/2311Z

Decode

Destination Runways

ID Width Length Bearing (true/mag) Surface Threshold Overrun Markings Lighting
01 151 ft / 46 m 11,297 ft / 3,443 m 359.63° / 6.47° ASPHALT 0 ft / 0 m 0 ft / 0 m PREC-APP CENTERLINE EDGE THRESHOLD ALSF-I REIL-OMNI
19 151 ft / 46 m 11,297 ft / 3,443 m 179.63° / 186.47° ASPHALT 0 ft / 0 m 112 ft / 34 m PREC-APP CENTERLINE EDGE THRESHOLD REIL-OMNI

Approach Navaids

Runway Type Ident Frequency Range Bearing (true/mag) Slope Elevation
01 GS IMDE 110.90 MHz 10 nm / 19 km 359.63° / 6.47 ° 3.00° 7,027 ft / 2,142 m (AMSL)
01 LOC-ILS IMDE 110.90 MHz 18 nm / 33 km 359.63° / 6.47 ° - 7,027 ft / 2,142 m (AMSL)
01 MM MM - - 359.62° / 6.46 ° - 8,679 ft / 2,645 m (AMSL)
01 OM OM - - 359.62° / 6.46 ° - 8,679 ft / 2,645 m (AMSL)